sensor_id;sensor_type;location;lat;lon;timestamp;P1;durP1;ratioP1;P2;durP2;ratioP2
27491;SDS011;14927;51.210;6.838;2022-11-23T00:02:15;2.30;;;0.77;;
27491;SDS011;14927;51.210;6.838;2022-11-23T00:05:00;6.10;;;1.08;;
27491;SDS011;14927;51.210;6.838;2022-11-23T00:07:45;7.60;;;1.20;;
27491;SDS011;14927;51.210;6.838;2022-11-23T00:10:29;2.45;;;1.00;;
27491;SDS011;14927;51.210;6.838;2022-11-23T00:13:14;3.35;;;0.90;;
27491;SDS011;14927;51.210;6.838;2022-11-23T00:15:58;1.73;;;0.68;;
27491;SDS011;14927;51.210;6.838;2022-11-23T00:18:45;4.63;;;1.10;;
27491;SDS011;14927;51.210;6.838;2022-11-23T00:21:30;2.13;;;0.73;;
27491;SDS011;14927;51.210;6.838;2022-11-23T00:24:16;4.47;;;0.85;;
27491;SDS011;14927;51.210;6.838;2022-11-23T00:27:00;4.05;;;1.02;;
27491;SDS011;14927;51.210;6.838;2022-11-23T00:29:45;3.50;;;0.88;;
27491;SDS011;14927;51.210;6.838;2022-11-23T00:32:30;4.88;;;0.68;;
27491;SDS011;14927;51.210;6.838;2022-11-23T00:35:14;4.00;;;0.80;;
27491;SDS011;14927;51.210;6.838;2022-11-23T00:37:59;1.63;;;0.57;;
27491;SDS011;14927;51.210;6.838;2022-11-23T00:40:44;3.10;;;0.60;;
27491;SDS011;14927;51.210;6.838;2022-11-23T00:43:28;2.08;;;0.63;;
27491;SDS011;14927;51.210;6.838;2022-11-23T00:46:14;2.67;;;0.80;;
27491;SDS011;14927;51.210;6.838;2022-11-23T00:49:10;2.83;;;0.70;;
27491;SDS011;14927;51.210;6.838;2022-11-23T00:51:54;1.15;;;0.50;;
27491;SDS011;14927;51.210;6.838;2022-11-23T00:54:39;1.25;;;0.68;;
27491;SDS011;14927;51.210;6.838;2022-11-23T00:57:24;3.25;;;0.80;;
27491;SDS011;14927;51.210;6.838;2022-11-23T01:00:08;3.67;;;1.02;;
27491;SDS011;14927;51.210;6.838;2022-11-23T01:02:54;3.58;;;0.60;;
27491;SDS011;14927;51.210;6.838;2022-11-23T01:05:39;2.05;;;0.45;;
27491;SDS011;14927;51.210;6.838;2022-11-23T01:08:23;3.67;;;0.90;;
27491;SDS011;14927;51.210;6.838;2022-11-23T01:11:10;2.95;;;0.40;;
27491;SDS011;14927;51.210;6.838;2022-11-23T01:13:55;3.97;;;0.77;;
27491;SDS011;14927;51.210;6.838;2022-11-23T01:16:41;4.85;;;0.90;;
27491;SDS011;14927;51.210;6.838;2022-11-23T01:19:26;3.35;;;1.13;;
27491;SDS011;14927;51.210;6.838;2022-11-23T01:22:10;2.70;;;0.63;;
27491;SDS011;14927;51.210;6.838;2022-11-23T01:24:55;1.27;;;0.50;;
27491;SDS011;14927;51.210;6.838;2022-11-23T01:27:40;2.15;;;0.57;;
27491;SDS011;14927;51.210;6.838;2022-11-23T01:30:24;3.78;;;0.77;;
27491;SDS011;14927;51.210;6.838;2022-11-23T01:33:09;1.95;;;0.43;;
27491;SDS011;14927;51.210;6.838;2022-11-23T01:35:53;3.75;;;0.57;;
27491;SDS011;14927;51.210;6.838;2022-11-23T01:38:38;2.95;;;0.73;;
27491;SDS011;14927;51.210;6.838;2022-11-23T01:41:25;2.08;;;0.50;;
27491;SDS011;14927;51.210;6.838;2022-11-23T01:44:23;3.30;;;0.50;;
27491;SDS011;14927;51.210;6.838;2022-11-23T01:47:14;4.50;;;0.65;;
27491;SDS011;14927;51.210;6.838;2022-11-23T01:49:59;3.67;;;0.65;;
27491;SDS011;14927;51.210;6.838;2022-11-23T01:52:43;3.47;;;0.75;;
27491;SDS011;14927;51.210;6.838;2022-11-23T01:55:28;4.13;;;0.68;;
27491;SDS011;14927;51.210;6.838;2022-11-23T01:58:13;2.08;;;0.65;;
27491;SDS011;14927;51.210;6.838;2022-11-23T02:01:03;4.20;;;0.88;;
27491;SDS011;14927;51.210;6.838;2022-11-23T02:03:48;2.63;;;0.73;;
27491;SDS011;14927;51.210;6.838;2022-11-23T02:06:34;2.35;;;0.60;;
27491;SDS011;14927;51.210;6.838;2022-11-23T02:09:19;2.33;;;0.70;;
27491;SDS011;14927;51.210;6.838;2022-11-23T02:12:08;3.15;;;0.60;;
27491;SDS011;14927;51.210;6.838;2022-11-23T02:14:55;6.93;;;0.90;;
27491;SDS011;14927;51.210;6.838;2022-11-23T02:17:40;2.88;;;0.68;;
27491;SDS011;14927;51.210;6.838;2022-11-23T02:20:26;4.20;;;0.93;;
27491;SDS011;14927;51.210;6.838;2022-11-23T02:26:13;2.63;;;0.45;;
27491;SDS011;14927;51.210;6.838;2022-11-23T02:29:13;4.07;;;0.70;;
27491;SDS011;14927;51.210;6.838;2022-11-23T02:32:07;4.68;;;0.52;;
27491;SDS011;14927;51.210;6.838;2022-11-23T02:34:52;4.00;;;0.70;;
27491;SDS011;14927;51.210;6.838;2022-11-23T02:37:36;3.35;;;0.70;;
27491;SDS011;14927;51.210;6.838;2022-11-23T02:40:33;4.53;;;0.70;;
27491;SDS011;14927;51.210;6.838;2022-11-23T02:43:19;2.88;;;1.20;;
27491;SDS011;14927;51.210;6.838;2022-11-23T02:46:04;2.35;;;0.73;;
27491;SDS011;14927;51.210;6.838;2022-11-23T02:48:48;6.15;;;1.10;;
27491;SDS011;14927;51.210;6.838;2022-11-23T02:51:33;3.47;;;0.77;;
27491;SDS011;14927;51.210;6.838;2022-11-23T02:54:18;4.18;;;0.90;;
27491;SDS011;14927;51.210;6.838;2022-11-23T02:57:02;3.95;;;0.80;;
27491;SDS011;14927;51.210;6.838;2022-11-23T02:59:48;4.15;;;0.90;;
27491;SDS011;14927;51.210;6.838;2022-11-23T03:02:33;3.58;;;1.00;;
27491;SDS011;14927;51.210;6.838;2022-11-23T03:05:18;4.85;;;0.85;;
27491;SDS011;14927;51.210;6.838;2022-11-23T03:08:02;4.07;;;0.80;;
27491;SDS011;14927;51.210;6.838;2022-11-23T03:10:47;3.03;;;0.63;;
27491;SDS011;14927;51.210;6.838;2022-11-23T03:13:31;3.60;;;1.00;;
27491;SDS011;14927;51.210;6.838;2022-11-23T03:16:16;5.10;;;1.25;;
27491;SDS011;14927;51.210;6.838;2022-11-23T03:19:01;3.28;;;0.90;;
27491;SDS011;14927;51.210;6.838;2022-11-23T03:21:46;5.60;;;1.20;;
27491;SDS011;14927;51.210;6.838;2022-11-23T03:24:30;6.55;;;1.55;;
27491;SDS011;14927;51.210;6.838;2022-11-23T03:27:15;4.30;;;0.98;;
27491;SDS011;14927;51.210;6.838;2022-11-23T03:30:00;7.80;;;1.05;;
27491;SDS011;14927;51.210;6.838;2022-11-23T03:32:45;6.20;;;1.05;;
27491;SDS011;14927;51.210;6.838;2022-11-23T03:35:29;5.45;;;0.90;;
27491;SDS011;14927;51.210;6.838;2022-11-23T03:38:14;6.32;;;1.30;;
27491;SDS011;14927;51.210;6.838;2022-11-23T03:40:58;7.75;;;1.58;;
27491;SDS011;14927;51.210;6.838;2022-11-23T03:43:43;6.50;;;1.30;;
27491;SDS011;14927;51.210;6.838;2022-11-23T03:46:28;2.15;;;0.68;;
27491;SDS011;14927;51.210;6.838;2022-11-23T03:49:13;7.28;;;1.10;;
27491;SDS011;14927;51.210;6.838;2022-11-23T03:51:57;4.28;;;1.10;;
27491;SDS011;14927;51.210;6.838;2022-11-23T03:54:42;5.72;;;1.25;;
27491;SDS011;14927;51.210;6.838;2022-11-23T03:57:27;8.18;;;1.52;;
27491;SDS011;14927;51.210;6.838;2022-11-23T04:00:20;7.30;;;1.40;;
27491;SDS011;14927;51.210;6.838;2022-11-23T04:03:05;3.45;;;1.08;;
27491;SDS011;14927;51.210;6.838;2022-11-23T04:05:49;6.55;;;1.75;;
27491;SDS011;14927;51.210;6.838;2022-11-23T04:08:34;7.65;;;1.33;;
27491;SDS011;14927;51.210;6.838;2022-11-23T04:11:18;6.88;;;1.23;;
27491;SDS011;14927;51.210;6.838;2022-11-23T04:14:03;6.78;;;1.80;;
27491;SDS011;14927;51.210;6.838;2022-11-23T04:16:48;5.05;;;1.38;;
27491;SDS011;14927;51.210;6.838;2022-11-23T04:19:32;4.28;;;1.02;;
27491;SDS011;14927;51.210;6.838;2022-11-23T04:22:17;14.13;;;2.38;;
27491;SDS011;14927;51.210;6.838;2022-11-23T04:25:02;6.90;;;1.38;;
27491;SDS011;14927;51.210;6.838;2022-11-23T04:27:46;10.00;;;1.83;;
27491;SDS011;14927;51.210;6.838;2022-11-23T04:30:31;7.85;;;1.42;;
27491;SDS011;14927;51.210;6.838;2022-11-23T04:33:15;3.28;;;0.98;;
27491;SDS011;14927;51.210;6.838;2022-11-23T04:36:00;9.07;;;1.95;;
27491;SDS011;14927;51.210;6.838;2022-11-23T04:38:45;5.13;;;1.13;;
27491;SDS011;14927;51.210;6.838;2022-11-23T04:41:29;5.13;;;1.10;;
27491;SDS011;14927;51.210;6.838;2022-11-23T04:44:14;7.35;;;1.60;;
27491;SDS011;14927;51.210;6.838;2022-11-23T04:46:58;8.77;;;1.75;;
27491;SDS011;14927;51.210;6.838;2022-11-23T04:49:43;4.93;;;1.45;;
27491;SDS011;14927;51.210;6.838;2022-11-23T04:52:27;4.45;;;1.00;;
27491;SDS011;14927;51.210;6.838;2022-11-23T04:55:12;7.25;;;1.75;;
27491;SDS011;14927;51.210;6.838;2022-11-23T04:57:57;5.47;;;1.67;;
27491;SDS011;14927;51.210;6.838;2022-11-23T05:00:42;6.43;;;1.70;;
27491;SDS011;14927;51.210;6.838;2022-11-23T05:03:26;8.38;;;1.63;;
27491;SDS011;14927;51.210;6.838;2022-11-23T05:06:11;9.10;;;1.70;;
27491;SDS011;14927;51.210;6.838;2022-11-23T05:08:55;6.55;;;1.70;;
27491;SDS011;14927;51.210;6.838;2022-11-23T05:11:40;8.25;;;2.03;;
27491;SDS011;14927;51.210;6.838;2022-11-23T05:14:25;10.15;;;2.10;;
27491;SDS011;14927;51.210;6.838;2022-11-23T05:17:09;5.57;;;1.27;;
27491;SDS011;14927;51.210;6.838;2022-11-23T05:19:54;7.30;;;1.60;;
27491;SDS011;14927;51.210;6.838;2022-11-23T05:22:38;8.02;;;1.38;;
27491;SDS011;14927;51.210;6.838;2022-11-23T05:25:23;6.75;;;1.85;;
27491;SDS011;14927;51.210;6.838;2022-11-23T05:28:17;7.28;;;1.67;;
27491;SDS011;14927;51.210;6.838;2022-11-23T05:31:03;6.97;;;1.50;;
27491;SDS011;14927;51.210;6.838;2022-11-23T05:33:48;6.80;;;1.95;;
27491;SDS011;14927;51.210;6.838;2022-11-23T05:36:32;9.65;;;2.33;;
27491;SDS011;14927;51.210;6.838;2022-11-23T05:39:17;7.63;;;2.17;;
27491;SDS011;14927;51.210;6.838;2022-11-23T05:42:02;6.30;;;1.80;;
27491;SDS011;14927;51.210;6.838;2022-11-23T05:44:48;11.05;;;1.70;;
27491;SDS011;14927;51.210;6.838;2022-11-23T05:47:33;11.02;;;1.92;;
27491;SDS011;14927;51.210;6.838;2022-11-23T05:50:17;8.07;;;1.73;;
27491;SDS011;14927;51.210;6.838;2022-11-23T05:53:03;10.75;;;1.75;;
27491;SDS011;14927;51.210;6.838;2022-11-23T05:55:48;6.43;;;2.10;;
27491;SDS011;14927;51.210;6.838;2022-11-23T05:58:33;7.97;;;1.63;;
27491;SDS011;14927;51.210;6.838;2022-11-23T06:01:17;4.40;;;1.38;;
27491;SDS011;14927;51.210;6.838;2022-11-23T06:04:02;5.05;;;1.52;;
27491;SDS011;14927;51.210;6.838;2022-11-23T06:06:48;4.95;;;1.30;;
27491;SDS011;14927;51.210;6.838;2022-11-23T06:09:33;5.57;;;1.60;;
27491;SDS011;14927;51.210;6.838;2022-11-23T06:12:18;6.40;;;1.77;;
27491;SDS011;14927;51.210;6.838;2022-11-23T06:15:03;14.50;;;2.00;;
27491;SDS011;14927;51.210;6.838;2022-11-23T06:17:48;5.03;;;1.73;;
27491;SDS011;14927;51.210;6.838;2022-11-23T06:20:33;8.07;;;2.17;;
27491;SDS011;14927;51.210;6.838;2022-11-23T06:23:17;12.40;;;2.38;;
27491;SDS011;14927;51.210;6.838;2022-11-23T06:26:02;11.02;;;2.38;;
27491;SDS011;14927;51.210;6.838;2022-11-23T06:28:47;8.15;;;1.58;;
27491;SDS011;14927;51.210;6.838;2022-11-23T06:31:32;7.20;;;1.80;;
27491;SDS011;14927;51.210;6.838;2022-11-23T06:34:16;9.35;;;1.92;;
27491;SDS011;14927;51.210;6.838;2022-11-23T06:37:01;8.65;;;1.58;;
27491;SDS011;14927;51.210;6.838;2022-11-23T06:39:46;5.05;;;1.38;;
27491;SDS011;14927;51.210;6.838;2022-11-23T06:42:30;9.35;;;1.50;;
27491;SDS011;14927;51.210;6.838;2022-11-23T06:45:15;10.23;;;1.25;;
27491;SDS011;14927;51.210;6.838;2022-11-23T06:48:03;5.35;;;1.80;;
27491;SDS011;14927;51.210;6.838;2022-11-23T06:50:50;8.60;;;1.63;;
27491;SDS011;14927;51.210;6.838;2022-11-23T06:53:35;7.00;;;1.25;;
27491;SDS011;14927;51.210;6.838;2022-11-23T06:56:20;7.93;;;1.48;;
27491;SDS011;14927;51.210;6.838;2022-11-23T06:59:04;6.88;;;1.48;;
27491;SDS011;14927;51.210;6.838;2022-11-23T07:01:52;5.68;;;1.38;;
27491;SDS011;14927;51.210;6.838;2022-11-23T07:04:42;6.50;;;1.90;;
27491;SDS011;14927;51.210;6.838;2022-11-23T07:07:35;5.95;;;1.60;;
27491;SDS011;14927;51.210;6.838;2022-11-23T07:10:20;12.98;;;2.10;;
27491;SDS011;14927;51.210;6.838;2022-11-23T07:13:07;13.63;;;2.85;;
27491;SDS011;14927;51.210;6.838;2022-11-23T07:15:55;8.27;;;1.85;;
27491;SDS011;14927;51.210;6.838;2022-11-23T07:18:41;7.35;;;2.03;;
27491;SDS011;14927;51.210;6.838;2022-11-23T07:21:26;9.07;;;1.85;;
27491;SDS011;14927;51.210;6.838;2022-11-23T07:24:13;10.63;;;3.20;;
27491;SDS011;14927;51.210;6.838;2022-11-23T07:26:58;7.53;;;1.75;;
27491;SDS011;14927;51.210;6.838;2022-11-23T07:29:42;8.05;;;2.20;;
27491;SDS011;14927;51.210;6.838;2022-11-23T07:32:27;9.80;;;2.13;;
27491;SDS011;14927;51.210;6.838;2022-11-23T07:35:12;8.90;;;1.70;;
27491;SDS011;14927;51.210;6.838;2022-11-23T07:37:58;5.07;;;1.75;;
27491;SDS011;14927;51.210;6.838;2022-11-23T07:40:43;5.43;;;1.73;;
27491;SDS011;14927;51.210;6.838;2022-11-23T07:43:32;9.65;;;1.33;;
27491;SDS011;14927;51.210;6.838;2022-11-23T07:46:16;9.15;;;1.60;;
27491;SDS011;14927;51.210;6.838;2022-11-23T07:49:01;6.78;;;1.90;;
27491;SDS011;14927;51.210;6.838;2022-11-23T07:51:45;6.20;;;1.45;;
27491;SDS011;14927;51.210;6.838;2022-11-23T07:54:30;7.85;;;2.03;;
27491;SDS011;14927;51.210;6.838;2022-11-23T07:57:15;4.75;;;1.40;;
27491;SDS011;14927;51.210;6.838;2022-11-23T07:59:59;5.03;;;1.50;;
27491;SDS011;14927;51.210;6.838;2022-11-23T08:02:45;7.72;;;1.55;;
27491;SDS011;14927;51.210;6.838;2022-11-23T08:05:30;8.68;;;1.55;;
27491;SDS011;14927;51.210;6.838;2022-11-23T08:08:16;12.27;;;2.17;;
27491;SDS011;14927;51.210;6.838;2022-11-23T08:11:00;12.93;;;1.83;;
27491;SDS011;14927;51.210;6.838;2022-11-23T08:13:45;10.10;;;1.60;;
27491;SDS011;14927;51.210;6.838;2022-11-23T08:16:29;6.72;;;1.30;;
27491;SDS011;14927;51.210;6.838;2022-11-23T08:19:14;7.68;;;1.73;;
27491;SDS011;14927;51.210;6.838;2022-11-23T08:21:59;8.00;;;1.88;;
27491;SDS011;14927;51.210;6.838;2022-11-23T08:24:43;12.95;;;1.80;;
27491;SDS011;14927;51.210;6.838;2022-11-23T08:27:27;10.75;;;1.90;;
27491;SDS011;14927;51.210;6.838;2022-11-23T08:30:12;9.98;;;1.95;;
27491;SDS011;14927;51.210;6.838;2022-11-23T08:32:58;11.95;;;2.15;;
27491;SDS011;14927;51.210;6.838;2022-11-23T08:35:46;14.02;;;1.77;;
27491;SDS011;14927;51.210;6.838;2022-11-23T08:38:31;9.00;;;1.67;;
27491;SDS011;14927;51.210;6.838;2022-11-23T08:41:18;13.85;;;2.20;;
27491;SDS011;14927;51.210;6.838;2022-11-23T08:44:03;7.75;;;1.63;;
27491;SDS011;14927;51.210;6.838;2022-11-23T08:46:48;7.80;;;1.50;;
27491;SDS011;14927;51.210;6.838;2022-11-23T08:49:33;14.20;;;2.08;;
27491;SDS011;14927;51.210;6.838;2022-11-23T08:52:18;14.23;;;1.88;;
27491;SDS011;14927;51.210;6.838;2022-11-23T08:55:03;15.07;;;2.63;;
27491;SDS011;14927;51.210;6.838;2022-11-23T08:57:48;11.63;;;2.30;;
27491;SDS011;14927;51.210;6.838;2022-11-23T09:00:33;12.43;;;2.90;;
27491;SDS011;14927;51.210;6.838;2022-11-23T09:03:18;11.43;;;2.20;;
27491;SDS011;14927;51.210;6.838;2022-11-23T09:06:03;9.90;;;1.85;;
27491;SDS011;14927;51.210;6.838;2022-11-23T09:08:52;16.88;;;1.90;;
27491;SDS011;14927;51.210;6.838;2022-11-23T09:11:37;10.15;;;2.10;;
27491;SDS011;14927;51.210;6.838;2022-11-23T09:14:21;8.88;;;2.13;;
27491;SDS011;14927;51.210;6.838;2022-11-23T09:17:06;13.27;;;2.75;;
27491;SDS011;14927;51.210;6.838;2022-11-23T09:19:51;13.77;;;1.75;;
27491;SDS011;14927;51.210;6.838;2022-11-23T09:22:35;8.25;;;1.98;;
27491;SDS011;14927;51.210;6.838;2022-11-23T09:25:21;15.27;;;2.53;;
27491;SDS011;14927;51.210;6.838;2022-11-23T09:28:06;14.05;;;2.33;;
27491;SDS011;14927;51.210;6.838;2022-11-23T09:30:51;10.45;;;1.95;;
27491;SDS011;14927;51.210;6.838;2022-11-23T09:33:36;14.00;;;2.42;;
27491;SDS011;14927;51.210;6.838;2022-11-23T09:36:20;9.02;;;1.75;;
27491;SDS011;14927;51.210;6.838;2022-11-23T09:39:08;13.50;;;2.08;;
27491;SDS011;14927;51.210;6.838;2022-11-23T09:42:00;9.35;;;2.25;;
27491;SDS011;14927;51.210;6.838;2022-11-23T09:45:07;16.15;;;2.65;;
27491;SDS011;14927;51.210;6.838;2022-11-23T09:51:23;9.82;;;2.08;;
27491;SDS011;14927;51.210;6.838;2022-11-23T09:57:20;13.57;;;2.10;;
27491;SDS011;14927;51.210;6.838;2022-11-23T10:00:17;11.15;;;2.47;;
27491;SDS011;14927;51.210;6.838;2022-11-23T10:03:10;13.48;;;2.15;;
27491;SDS011;14927;51.210;6.838;2022-11-23T10:06:20;9.90;;;2.08;;
27491;SDS011;14927;51.210;6.838;2022-11-23T10:09:17;11.52;;;2.00;;
27491;SDS011;14927;51.210;6.838;2022-11-23T10:15:44;10.25;;;1.38;;
27491;SDS011;14927;51.210;6.838;2022-11-23T10:22:57;6.35;;;2.17;;
27491;SDS011;14927;51.210;6.838;2022-11-23T10:25:48;10.18;;;1.90;;
27491;SDS011;14927;51.210;6.838;2022-11-23T10:31:20;11.85;;;2.33;;
27491;SDS011;14927;51.210;6.838;2022-11-23T10:34:10;11.95;;;1.90;;
27491;SDS011;14927;51.210;6.838;2022-11-23T10:37:01;6.80;;;1.40;;
27491;SDS011;14927;51.210;6.838;2022-11-23T10:39:48;9.55;;;2.22;;
27491;SDS011;14927;51.210;6.838;2022-11-23T10:42:41;9.23;;;1.77;;
27491;SDS011;14927;51.210;6.838;2022-11-23T10:45:30;9.90;;;2.20;;
27491;SDS011;14927;51.210;6.838;2022-11-23T10:48:33;17.65;;;2.00;;
27491;SDS011;14927;51.210;6.838;2022-11-23T10:51:25;9.73;;;1.70;;
27491;SDS011;14927;51.210;6.838;2022-11-23T10:57:30;13.02;;;2.20;;
27491;SDS011;14927;51.210;6.838;2022-11-23T11:00:17;9.57;;;1.83;;
27491;SDS011;14927;51.210;6.838;2022-11-23T11:03:04;7.80;;;1.67;;
27491;SDS011;14927;51.210;6.838;2022-11-23T11:06:06;15.32;;;2.25;;
27491;SDS011;14927;51.210;6.838;2022-11-23T11:08:53;6.25;;;1.77;;
27491;SDS011;14927;51.210;6.838;2022-11-23T11:11:45;10.80;;;2.03;;
27491;SDS011;14927;51.210;6.838;2022-11-23T11:14:31;15.05;;;2.22;;
27491;SDS011;14927;51.210;6.838;2022-11-23T11:17:24;6.75;;;1.52;;
27491;SDS011;14927;51.210;6.838;2022-11-23T11:23:18;11.37;;;1.90;;
27491;SDS011;14927;51.210;6.838;2022-11-23T11:26:06;11.05;;;2.03;;
27491;SDS011;14927;51.210;6.838;2022-11-23T11:29:04;7.85;;;1.90;;
27491;SDS011;14927;51.210;6.838;2022-11-23T11:32:01;9.52;;;1.77;;
27491;SDS011;14927;51.210;6.838;2022-11-23T11:34:59;6.13;;;1.50;;
27491;SDS011;14927;51.210;6.838;2022-11-23T11:38:24;10.00;;;1.50;;
27491;SDS011;14927;51.210;6.838;2022-11-23T11:41:17;8.18;;;1.33;;
27491;SDS011;14927;51.210;6.838;2022-11-23T11:44:08;4.82;;;1.02;;
27491;SDS011;14927;51.210;6.838;2022-11-23T11:47:20;8.35;;;1.42;;
27491;SDS011;14927;51.210;6.838;2022-11-23T11:53:11;6.93;;;1.25;;
27491;SDS011;14927;51.210;6.838;2022-11-23T12:05:50;7.45;;;1.35;;
27491;SDS011;14927;51.210;6.838;2022-11-23T12:11:52;4.32;;;1.20;;
27491;SDS011;14927;51.210;6.838;2022-11-23T12:14:37;9.23;;;1.48;;
27491;SDS011;14927;51.210;6.838;2022-11-23T12:20:37;5.60;;;1.15;;
27491;SDS011;14927;51.210;6.838;2022-11-23T12:43:21;5.90;;;1.17;;
27491;SDS011;14927;51.210;6.838;2022-11-23T12:50:03;13.43;;;1.45;;
27491;SDS011;14927;51.210;6.838;2022-11-23T12:53:15;5.97;;;1.10;;
27491;SDS011;14927;51.210;6.838;2022-11-23T12:56:30;7.78;;;1.58;;
27491;SDS011;14927;51.210;6.838;2022-11-23T13:00:04;5.93;;;1.45;;
27491;SDS011;14927;51.210;6.838;2022-11-23T13:03:20;4.43;;;1.13;;
27491;SDS011;14927;51.210;6.838;2022-11-23T13:13:34;7.07;;;1.63;;
27491;SDS011;14927;51.210;6.838;2022-11-23T13:20:19;7.15;;;1.67;;
27491;SDS011;14927;51.210;6.838;2022-11-23T13:23:19;4.68;;;1.25;;
27491;SDS011;14927;51.210;6.838;2022-11-23T13:26:13;4.80;;;1.27;;
27491;SDS011;14927;51.210;6.838;2022-11-23T13:29:00;7.22;;;1.27;;
27491;SDS011;14927;51.210;6.838;2022-11-23T13:40:57;5.82;;;1.15;;
27491;SDS011;14927;51.210;6.838;2022-11-23T13:43:41;5.15;;;1.17;;
27491;SDS011;14927;51.210;6.838;2022-11-23T13:46:26;10.27;;;1.83;;
27491;SDS011;14927;51.210;6.838;2022-11-23T13:49:27;5.47;;;0.95;;
27491;SDS011;14927;51.210;6.838;2022-11-23T13:52:33;6.72;;;1.17;;
27491;SDS011;14927;51.210;6.838;2022-11-23T13:55:20;5.65;;;1.10;;
27491;SDS011;14927;51.210;6.838;2022-11-23T14:01:07;7.55;;;1.83;;
27491;SDS011;14927;51.210;6.838;2022-11-23T14:03:52;5.05;;;1.35;;
27491;SDS011;14927;51.210;6.838;2022-11-23T14:06:52;4.85;;;1.27;;
27491;SDS011;14927;51.210;6.838;2022-11-23T14:10:02;5.05;;;1.60;;
27491;SDS011;14927;51.210;6.838;2022-11-23T14:13:02;5.32;;;1.75;;
27491;SDS011;14927;51.210;6.838;2022-11-23T14:16:08;4.00;;;1.35;;
27491;SDS011;14927;51.210;6.838;2022-11-23T14:21:54;6.72;;;1.90;;
27491;SDS011;14927;51.210;6.838;2022-11-23T14:32:14;5.95;;;1.40;;
27491;SDS011;14927;51.210;6.838;2022-11-23T14:38:49;7.97;;;2.33;;
27491;SDS011;14927;51.210;6.838;2022-11-23T14:41:58;6.07;;;1.77;;
27491;SDS011;14927;51.210;6.838;2022-11-23T14:44:46;3.73;;;1.57;;
27491;SDS011;14927;51.210;6.838;2022-11-23T14:47:31;3.15;;;1.40;;
27491;SDS011;14927;51.210;6.838;2022-11-23T14:50:26;6.28;;;1.67;;
27491;SDS011;14927;51.210;6.838;2022-11-23T14:53:11;4.60;;;1.30;;
27491;SDS011;14927;51.210;6.838;2022-11-23T14:55:56;5.13;;;1.55;;
27491;SDS011;14927;51.210;6.838;2022-11-23T14:58:41;8.75;;;2.22;;
27491;SDS011;14927;51.210;6.838;2022-11-23T15:01:27;5.38;;;1.65;;
27491;SDS011;14927;51.210;6.838;2022-11-23T15:04:20;5.13;;;1.55;;
27491;SDS011;14927;51.210;6.838;2022-11-23T15:07:13;4.07;;;1.35;;
27491;SDS011;14927;51.210;6.838;2022-11-23T15:13:23;8.93;;;1.38;;
27491;SDS011;14927;51.210;6.838;2022-11-23T15:16:13;6.97;;;1.30;;
27491;SDS011;14927;51.210;6.838;2022-11-23T15:19:04;7.82;;;1.50;;
27491;SDS011;14927;51.210;6.838;2022-11-23T15:22:15;4.05;;;1.35;;
27491;SDS011;14927;51.210;6.838;2022-11-23T15:25:06;9.77;;;2.25;;
27491;SDS011;14927;51.210;6.838;2022-11-23T15:27:56;4.93;;;1.55;;
27491;SDS011;14927;51.210;6.838;2022-11-23T15:30:41;5.18;;;1.33;;
27491;SDS011;14927;51.210;6.838;2022-11-23T15:33:25;5.90;;;1.80;;
27491;SDS011;14927;51.210;6.838;2022-11-23T15:36:10;8.07;;;1.83;;
27491;SDS011;14927;51.210;6.838;2022-11-23T15:38:56;9.18;;;2.30;;
27491;SDS011;14927;51.210;6.838;2022-11-23T15:41:41;5.72;;;1.50;;
27491;SDS011;14927;51.210;6.838;2022-11-23T15:44:30;4.38;;;1.45;;
27491;SDS011;14927;51.210;6.838;2022-11-23T15:47:21;10.15;;;1.90;;
27491;SDS011;14927;51.210;6.838;2022-11-23T15:50:12;6.95;;;1.90;;
27491;SDS011;14927;51.210;6.838;2022-11-23T15:53:00;5.50;;;2.00;;
27491;SDS011;14927;51.210;6.838;2022-11-23T15:55:45;6.32;;;1.92;;
27491;SDS011;14927;51.210;6.838;2022-11-23T15:58:30;7.45;;;2.00;;
27491;SDS011;14927;51.210;6.838;2022-11-23T16:01:17;10.48;;;2.17;;
27491;SDS011;14927;51.210;6.838;2022-11-23T16:04:04;5.57;;;2.22;;
27491;SDS011;14927;51.210;6.838;2022-11-23T16:07:20;6.97;;;1.98;;
27491;SDS011;14927;51.210;6.838;2022-11-23T16:10:10;7.82;;;1.63;;
27491;SDS011;14927;51.210;6.838;2022-11-23T16:13:32;7.95;;;1.60;;
27491;SDS011;14927;51.210;6.838;2022-11-23T16:16:22;7.80;;;1.75;;
27491;SDS011;14927;51.210;6.838;2022-11-23T16:22:33;8.40;;;1.75;;
27491;SDS011;14927;51.210;6.838;2022-11-23T16:25:27;7.88;;;2.08;;
27491;SDS011;14927;51.210;6.838;2022-11-23T16:28:16;6.22;;;1.52;;
27491;SDS011;14927;51.210;6.838;2022-11-23T16:34:19;6.73;;;1.83;;
27491;SDS011;14927;51.210;6.838;2022-11-23T16:37:05;9.23;;;2.20;;
27491;SDS011;14927;51.210;6.838;2022-11-23T16:39:49;6.20;;;1.60;;
27491;SDS011;14927;51.210;6.838;2022-11-23T16:42:34;9.43;;;1.55;;
27491;SDS011;14927;51.210;6.838;2022-11-23T16:45:18;5.07;;;1.50;;
27491;SDS011;14927;51.210;6.838;2022-11-23T16:48:07;4.38;;;1.73;;
27491;SDS011;14927;51.210;6.838;2022-11-23T16:51:10;7.88;;;1.48;;
27491;SDS011;14927;51.210;6.838;2022-11-23T16:53:57;7.55;;;1.65;;
27491;SDS011;14927;51.210;6.838;2022-11-23T16:56:42;6.22;;;1.80;;
27491;SDS011;14927;51.210;6.838;2022-11-23T16:59:27;6.55;;;1.80;;
27491;SDS011;14927;51.210;6.838;2022-11-23T17:02:12;9.75;;;2.33;;
27491;SDS011;14927;51.210;6.838;2022-11-23T17:04:58;6.22;;;2.03;;
27491;SDS011;14927;51.210;6.838;2022-11-23T17:07:43;7.13;;;1.65;;
27491;SDS011;14927;51.210;6.838;2022-11-23T17:10:28;4.47;;;1.60;;
27491;SDS011;14927;51.210;6.838;2022-11-23T17:13:18;8.15;;;2.15;;
27491;SDS011;14927;51.210;6.838;2022-11-23T17:16:08;4.50;;;1.48;;
27491;SDS011;14927;51.210;6.838;2022-11-23T17:18:57;4.07;;;1.40;;
27491;SDS011;14927;51.210;6.838;2022-11-23T17:21:42;6.85;;;2.15;;
27491;SDS011;14927;51.210;6.838;2022-11-23T17:24:27;8.90;;;2.13;;
27491;SDS011;14927;51.210;6.838;2022-11-23T17:27:15;7.35;;;2.03;;
27491;SDS011;14927;51.210;6.838;2022-11-23T17:30:06;7.93;;;1.90;;
27491;SDS011;14927;51.210;6.838;2022-11-23T17:33:03;7.53;;;2.10;;
27491;SDS011;14927;51.210;6.838;2022-11-23T17:35:48;8.10;;;2.80;;
27491;SDS011;14927;51.210;6.838;2022-11-23T17:38:33;10.68;;;2.75;;
27491;SDS011;14927;51.210;6.838;2022-11-23T17:41:19;9.60;;;2.53;;
27491;SDS011;14927;51.210;6.838;2022-11-23T17:44:03;5.03;;;1.60;;
27491;SDS011;14927;51.210;6.838;2022-11-23T17:46:48;5.25;;;1.70;;
27491;SDS011;14927;51.210;6.838;2022-11-23T17:49:35;7.43;;;1.70;;
27491;SDS011;14927;51.210;6.838;2022-11-23T17:52:20;2.90;;;1.20;;
27491;SDS011;14927;51.210;6.838;2022-11-23T17:55:07;4.97;;;1.70;;
27491;SDS011;14927;51.210;6.838;2022-11-23T17:57:54;8.02;;;1.95;;
27491;SDS011;14927;51.210;6.838;2022-11-23T18:00:38;3.53;;;1.20;;
27491;SDS011;14927;51.210;6.838;2022-11-23T18:03:23;5.38;;;1.13;;
27491;SDS011;14927;51.210;6.838;2022-11-23T18:06:18;4.80;;;1.20;;
27491;SDS011;14927;51.210;6.838;2022-11-23T18:09:07;5.75;;;1.90;;
27491;SDS011;14927;51.210;6.838;2022-11-23T18:11:54;3.92;;;0.90;;
27491;SDS011;14927;51.210;6.838;2022-11-23T18:14:39;7.57;;;1.55;;
27491;SDS011;14927;51.210;6.838;2022-11-23T18:17:24;1.90;;;0.95;;
27491;SDS011;14927;51.210;6.838;2022-11-23T18:20:10;3.85;;;1.27;;
27491;SDS011;14927;51.210;6.838;2022-11-23T18:22:54;4.22;;;1.13;;
27491;SDS011;14927;51.210;6.838;2022-11-23T18:25:40;4.15;;;1.38;;
27491;SDS011;14927;51.210;6.838;2022-11-23T18:28:25;3.80;;;1.85;;
27491;SDS011;14927;51.210;6.838;2022-11-23T18:31:10;4.47;;;0.90;;
27491;SDS011;14927;51.210;6.838;2022-11-23T18:33:55;3.22;;;1.05;;
27491;SDS011;14927;51.210;6.838;2022-11-23T18:36:40;5.75;;;1.35;;
27491;SDS011;14927;51.210;6.838;2022-11-23T18:39:25;1.88;;;1.20;;
27491;SDS011;14927;51.210;6.838;2022-11-23T18:42:10;3.15;;;1.40;;
27491;SDS011;14927;51.210;6.838;2022-11-23T18:44:55;4.03;;;1.50;;
27491;SDS011;14927;51.210;6.838;2022-11-23T18:47:39;3.35;;;1.60;;